sensor_id;sensor_type;location;lat;lon;timestamp;temperature;humidity
73570;SHT30;61850;54.980;73.298;2022-07-09T09:21:51;33.39;28.97
73570;SHT30;61850;54.980;73.298;2022-07-09T09:24:23;33.61;29.22
73570;SHT30;61850;54.980;73.298;2022-07-09T09:26:55;34.11;28.35
73570;SHT30;61850;54.980;73.298;2022-07-09T09:29:28;34.59;27.80
73570;SHT30;61850;54.980;73.298;2022-07-09T09:31:55;35.19;27.54
73570;SHT30;61850;54.980;73.298;2022-07-09T09:34:22;35.46;26.70
73570;SHT30;61850;54.980;73.298;2022-07-09T09:36:52;35.44;26.28
73570;SHT30;61850;54.980;73.298;2022-07-09T09:39:28;34.68;26.69
73570;SHT30;61850;54.980;73.298;2022-07-09T09:41:59;33.86;28.14
73570;SHT30;61850;54.980;73.298;2022-07-09T09:44:33;34.65;26.93
73570;SHT30;61850;54.980;73.298;2022-07-09T09:47:06;34.98;26.49
73570;SHT30;61850;54.980;73.298;2022-07-09T09:49:41;34.44;26.93
73570;SHT30;61850;54.980;73.298;2022-07-09T09:52:09;34.94;25.85
73570;SHT30;61850;54.980;73.298;2022-07-09T09:54:40;35.22;25.00
73570;SHT30;61850;54.980;73.298;2022-07-09T09:57:12;35.49;24.71
73570;SHT30;61850;54.980;73.298;2022-07-09T09:59:52;35.78;24.74
73570;SHT30;61850;54.980;73.298;2022-07-09T10:02:20;36.01;24.24
73570;SHT30;61850;54.980;73.298;2022-07-09T10:04:46;36.29;24.16
73570;SHT30;61850;54.980;73.298;2022-07-09T10:07:15;36.82;23.26
73570;SHT30;61850;54.980;73.298;2022-07-09T10:09:57;36.00;24.59
73570;SHT30;61850;54.980;73.298;2022-07-09T10:12:32;35.40;25.70
73570;SHT30;61850;54.980;73.298;2022-07-09T10:14:59;34.44;26.82
73570;SHT30;61850;54.980;73.298;2022-07-09T10:17:39;33.24;28.04
73570;SHT30;61850;54.980;73.298;2022-07-09T10:20:13;32.78;29.13
73570;SHT30;61850;54.980;73.298;2022-07-09T10:22:45;32.20;29.60
73570;SHT30;61850;54.980;73.298;2022-07-09T10:25:29;32.67;28.76
73570;SHT30;61850;54.980;73.298;2022-07-09T10:27:55;32.80;29.10
73570;SHT30;61850;54.980;73.298;2022-07-09T10:30:32;33.42;28.14
73570;SHT30;61850;54.980;73.298;2022-07-09T10:35:45;34.61;26.59
73570;SHT30;61850;54.980;73.298;2022-07-09T10:38:13;35.12;26.32
73570;SHT30;61850;54.980;73.298;2022-07-09T10:40:42;35.87;25.51
73570;SHT30;61850;54.980;73.298;2022-07-09T10:43:10;36.48;24.80
73570;SHT30;61850;54.980;73.298;2022-07-09T10:45:46;36.63;24.38
73570;SHT30;61850;54.980;73.298;2022-07-09T10:48:14;35.03;26.03
73570;SHT30;61850;54.980;73.298;2022-07-09T10:50:47;34.72;26.66
73570;SHT30;61850;54.980;73.298;2022-07-09T10:53:13;34.81;26.97
73570;SHT30;61850;54.980;73.298;2022-07-09T10:55:42;35.61;26.19
73570;SHT30;61850;54.980;73.298;2022-07-09T10:58:21;36.02;25.94
73570;SHT30;61850;54.980;73.298;2022-07-09T11:01:01;36.48;24.94
73570;SHT30;61850;54.980;73.298;2022-07-09T11:03:31;36.32;25.40
73570;SHT30;61850;54.980;73.298;2022-07-09T11:05:58;36.42;25.36
73570;SHT30;61850;54.980;73.298;2022-07-09T11:08:24;36.60;24.95
73570;SHT30;61850;54.980;73.298;2022-07-09T11:10:55;36.11;25.60
73570;SHT30;61850;54.980;73.298;2022-07-09T11:13:25;36.49;24.62
73570;SHT30;61850;54.980;73.298;2022-07-09T11:15:58;36.45;24.27
73570;SHT30;61850;54.980;73.298;2022-07-09T11:18:30;36.53;24.26
73570;SHT30;61850;54.980;73.298;2022-07-09T11:20:56;36.91;23.81
73570;SHT30;61850;54.980;73.298;2022-07-09T11:23:31;36.96;23.85
73570;SHT30;61850;54.980;73.298;2022-07-09T11:25:57;37.16;23.55
73570;SHT30;61850;54.980;73.298;2022-07-09T11:28:24;36.87;23.92
73570;SHT30;61850;54.980;73.298;2022-07-09T11:30:59;36.82;23.96
73570;SHT30;61850;54.980;73.298;2022-07-09T11:33:36;37.11;23.66
73570;SHT30;61850;54.980;73.298;2022-07-09T11:36:21;36.97;23.46
73570;SHT30;61850;54.980;73.298;2022-07-09T11:38:51;36.25;24.23
73570;SHT30;61850;54.980;73.298;2022-07-09T11:41:18;36.41;24.31
73570;SHT30;61850;54.980;73.298;2022-07-09T11:43:51;35.85;24.90
73570;SHT30;61850;54.980;73.298;2022-07-09T11:46:19;36.29;24.71
73570;SHT30;61850;54.980;73.298;2022-07-09T11:48:52;36.63;24.42
73570;SHT30;61850;54.980;73.298;2022-07-09T11:51:27;36.68;24.01
73570;SHT30;61850;54.980;73.298;2022-07-09T11:53:53;36.63;24.39
73570;SHT30;61850;54.980;73.298;2022-07-09T11:56:19;36.69;24.33
73570;SHT30;61850;54.980;73.298;2022-07-09T11:58:49;37.01;23.92
73570;SHT30;61850;54.980;73.298;2022-07-09T12:01:16;37.31;23.71
73570;SHT30;61850;54.980;73.298;2022-07-09T12:03:54;36.87;23.92
73570;SHT30;61850;54.980;73.298;2022-07-09T12:06:23;36.48;24.04
73570;SHT30;61850;54.980;73.298;2022-07-09T12:09:01;36.80;23.56
73570;SHT30;61850;54.980;73.298;2022-07-09T12:11:46;36.79;23.80
73570;SHT30;61850;54.980;73.298;2022-07-09T12:14:30;37.34;23.22
73570;SHT30;61850;54.980;73.298;2022-07-09T12:17:28;37.42;22.94
73570;SHT30;61850;54.980;73.298;2022-07-09T12:20:13;37.51;22.92
73570;SHT30;61850;54.980;73.298;2022-07-09T12:23:01;37.14;23.17
73570;SHT30;61850;54.980;73.298;2022-07-09T12:25:46;37.04;23.59
73570;SHT30;61850;54.980;73.298;2022-07-09T12:28:31;37.14;23.53
73570;SHT30;61850;54.980;73.298;2022-07-09T12:31:16;37.35;23.46
73570;SHT30;61850;54.980;73.298;2022-07-09T12:34:01;37.38;23.27
73570;SHT30;61850;54.980;73.298;2022-07-09T12:36:45;37.20;23.49
73570;SHT30;61850;54.980;73.298;2022-07-09T12:39:24;37.53;23.34
73570;SHT30;61850;54.980;73.298;2022-07-09T12:41:51;37.45;23.29
73570;SHT30;61850;54.980;73.298;2022-07-09T12:44:17;37.39;23.16
73570;SHT30;61850;54.980;73.298;2022-07-09T12:46:44;37.23;23.24
73570;SHT30;61850;54.980;73.298;2022-07-09T12:49:10;37.06;23.43
73570;SHT30;61850;54.980;73.298;2022-07-09T12:51:36;37.28;23.00
73570;SHT30;61850;54.980;73.298;2022-07-09T12:54:02;37.21;23.08
73570;SHT30;61850;54.980;73.298;2022-07-09T12:56:29;37.01;23.13
73570;SHT30;61850;54.980;73.298;2022-07-09T12:58:55;36.90;23.18
73570;SHT30;61850;54.980;73.298;2022-07-09T13:01:25;36.91;23.14
73570;SHT30;61850;54.980;73.298;2022-07-09T13:03:52;36.87;23.06
73570;SHT30;61850;54.980;73.298;2022-07-09T13:06:19;36.59;23.39
73570;SHT30;61850;54.980;73.298;2022-07-09T13:09:03;36.83;23.03
73570;SHT30;61850;54.980;73.298;2022-07-09T13:11:30;36.73;23.31
73570;SHT30;61850;54.980;73.298;2022-07-09T13:14:01;36.86;23.34
73570;SHT30;61850;54.980;73.298;2022-07-09T13:16:28;36.91;23.45
73570;SHT30;61850;54.980;73.298;2022-07-09T13:18:54;36.50;23.82
73570;SHT30;61850;54.980;73.298;2022-07-09T13:21:21;36.17;24.43
73570;SHT30;61850;54.980;73.298;2022-07-09T13:23:49;36.56;24.18
73570;SHT30;61850;54.980;73.298;2022-07-09T13:26:16;36.87;24.01
73570;SHT30;61850;54.980;73.298;2022-07-09T13:28:48;36.77;24.37
73570;SHT30;61850;54.980;73.298;2022-07-09T13:31:14;36.55;24.21
73570;SHT30;61850;54.980;73.298;2022-07-09T13:33:51;36.31;24.12
73570;SHT30;61850;54.980;73.298;2022-07-09T13:36:18;36.21;24.18
73570;SHT30;61850;54.980;73.298;2022-07-09T13:38:45;36.18;24.28
73570;SHT30;61850;54.980;73.298;2022-07-09T13:41:13;36.09;24.40
73570;SHT30;61850;54.980;73.298;2022-07-09T13:43:39;35.73;25.09
73570;SHT30;61850;54.980;73.298;2022-07-09T13:46:05;35.70;25.16
73570;SHT30;61850;54.980;73.298;2022-07-09T13:48:32;35.80;25.18
73570;SHT30;61850;54.980;73.298;2022-07-09T13:50:59;35.97;24.91
73570;SHT30;61850;54.980;73.298;2022-07-09T13:53:26;35.16;25.42
73570;SHT30;61850;54.980;73.298;2022-07-09T13:55:54;33.97;26.77
73570;SHT30;61850;54.980;73.298;2022-07-09T13:58:28;33.28;27.74
73570;SHT30;61850;54.980;73.298;2022-07-09T14:00:54;32.67;28.57
73570;SHT30;61850;54.980;73.298;2022-07-09T14:03:21;32.01;29.80
73570;SHT30;61850;54.980;73.298;2022-07-09T14:05:48;31.57;30.54
73570;SHT30;61850;54.980;73.298;2022-07-09T14:08:14;31.13;31.26
73570;SHT30;61850;54.980;73.298;2022-07-09T14:10:40;30.83;31.87
73570;SHT30;61850;54.980;73.298;2022-07-09T14:13:06;30.54;32.34
73570;SHT30;61850;54.980;73.298;2022-07-09T14:15:33;30.28;32.96
73570;SHT30;61850;54.980;73.298;2022-07-09T14:17:59;30.14;33.27
73570;SHT30;61850;54.980;73.298;2022-07-09T14:20:26;29.93;33.77
73570;SHT30;61850;54.980;73.298;2022-07-09T14:23:02;29.69;34.25
73570;SHT30;61850;54.980;73.298;2022-07-09T14:25:28;29.52;34.70
73570;SHT30;61850;54.980;73.298;2022-07-09T14:27:54;29.38;34.84
73570;SHT30;61850;54.980;73.298;2022-07-09T14:30:21;29.25;35.25
73570;SHT30;61850;54.980;73.298;2022-07-09T14:32:47;29.12;35.33
73570;SHT30;61850;54.980;73.298;2022-07-09T14:35:16;29.08;35.43
73570;SHT30;61850;54.980;73.298;2022-07-09T14:37:42;28.95;35.79
73570;SHT30;61850;54.980;73.298;2022-07-09T14:40:08;28.81;35.91
73570;SHT30;61850;54.980;73.298;2022-07-09T14:42:45;28.68;36.22
73570;SHT30;61850;54.980;73.298;2022-07-09T14:45:11;28.60;36.39
73570;SHT30;61850;54.980;73.298;2022-07-09T14:47:38;28.54;36.67
73570;SHT30;61850;54.980;73.298;2022-07-09T14:50:04;28.43;36.91
73570;SHT30;61850;54.980;73.298;2022-07-09T14:52:30;28.33;37.11
73570;SHT30;61850;54.980;73.298;2022-07-09T14:54:56;28.25;37.41
73570;SHT30;61850;54.980;73.298;2022-07-09T14:57:22;28.13;37.90
73570;SHT30;61850;54.980;73.298;2022-07-09T14:59:57;28.05;38.00
73570;SHT30;61850;54.980;73.298;2022-07-09T15:02:23;27.99;38.23
73570;SHT30;61850;54.980;73.298;2022-07-09T15:04:49;27.95;38.22
73570;SHT30;61850;54.980;73.298;2022-07-09T15:07:17;27.88;38.44
73570;SHT30;61850;54.980;73.298;2022-07-09T15:09:43;27.82;38.54
73570;SHT30;61850;54.980;73.298;2022-07-09T15:12:10;27.85;38.48
73570;SHT30;61850;54.980;73.298;2022-07-09T15:14:36;27.96;38.38
73570;SHT30;61850;54.980;73.298;2022-07-09T15:17:02;28.13;38.15
73570;SHT30;61850;54.980;73.298;2022-07-09T15:19:28;28.17;38.07
73570;SHT30;61850;54.980;73.298;2022-07-09T15:21:55;28.16;38.10
73570;SHT30;61850;54.980;73.298;2022-07-09T15:24:21;28.17;38.20
73570;SHT30;61850;54.980;73.298;2022-07-09T15:26:48;28.19;38.18
73570;SHT30;61850;54.980;73.298;2022-07-09T15:29:16;28.17;38.22
73570;SHT30;61850;54.980;73.298;2022-07-09T15:31:52;28.09;38.39
73570;SHT30;61850;54.980;73.298;2022-07-09T15:34:18;27.99;38.61
73570;SHT30;61850;54.980;73.298;2022-07-09T15:36:50;27.85;38.81
73570;SHT30;61850;54.980;73.298;2022-07-09T15:39:17;27.71;39.10
73570;SHT30;61850;54.980;73.298;2022-07-09T15:41:43;27.57;39.45
73570;SHT30;61850;54.980;73.298;2022-07-09T15:44:15;27.41;39.72
73570;SHT30;61850;54.980;73.298;2022-07-09T15:46:51;27.30;39.99
73570;SHT30;61850;54.980;73.298;2022-07-09T15:49:24;27.24;40.41
73570;SHT30;61850;54.980;73.298;2022-07-09T15:51:51;27.16;40.46
73570;SHT30;61850;54.980;73.298;2022-07-09T15:54:19;27.07;40.61
73570;SHT30;61850;54.980;73.298;2022-07-09T16:02:51;26.78;41.45
73570;SHT30;61850;54.980;73.298;2022-07-09T16:05:21;26.73;41.61
73570;SHT30;61850;54.980;73.298;2022-07-09T16:08:23;26.69;41.69
73570;SHT30;61850;54.980;73.298;2022-07-09T16:13:56;26.56;42.02
73570;SHT30;61850;54.980;73.298;2022-07-09T16:16:22;26.51;42.05
73570;SHT30;61850;54.980;73.298;2022-07-09T16:31:00;26.17;42.89
73570;SHT30;61850;54.980;73.298;2022-07-09T16:42:29;25.87;43.46
73570;SHT30;61850;54.980;73.298;2022-07-09T16:45:00;25.82;43.47
73570;SHT30;61850;54.980;73.298;2022-07-09T16:47:26;25.87;43.36
73570;SHT30;61850;54.980;73.298;2022-07-09T16:49:52;25.84;43.39
73570;SHT30;61850;54.980;73.298;2022-07-09T16:52:20;25.80;43.35
73570;SHT30;61850;54.980;73.298;2022-07-09T16:54:57;25.77;43.27
73570;SHT30;61850;54.980;73.298;2022-07-09T16:57:23;25.73;43.50
73570;SHT30;61850;54.980;73.298;2022-07-09T16:59:50;25.73;43.44
73570;SHT30;61850;54.980;73.298;2022-07-09T18:44:18;24.29;47.02
73570;SHT30;61850;54.980;73.298;2022-07-09T18:46:54;24.22;47.33
73570;SHT30;61850;54.980;73.298;2022-07-09T18:49:20;24.25;47.13
73570;SHT30;61850;54.980;73.298;2022-07-09T19:10:07;24.15;47.44
73570;SHT30;61850;54.980;73.298;2022-07-09T19:12:33;24.13;47.50
73570;SHT30;61850;54.980;73.298;2022-07-09T19:15:01;24.05;47.81
73570;SHT30;61850;54.980;73.298;2022-07-09T19:17:27;23.98;48.13
73570;SHT30;61850;54.980;73.298;2022-07-09T19:19:54;23.92;48.54
73570;SHT30;61850;54.980;73.298;2022-07-09T19:22:30;23.89;48.48
73570;SHT30;61850;54.980;73.298;2022-07-09T19:34:05;23.89;48.23
73570;SHT30;61850;54.980;73.298;2022-07-09T20:22:17;23.23;50.53
73570;SHT30;61850;54.980;73.298;2022-07-09T20:24:54;23.26;50.33
73570;SHT30;61850;54.980;73.298;2022-07-09T22:49:01;22.20;55.46
73570;SHT30;61850;54.980;73.298;2022-07-09T22:51:34;22.14;55.73
73570;SHT30;61850;54.980;73.298;2022-07-09T22:54:10;22.13;55.69
73570;SHT30;61850;54.980;73.298;2022-07-09T22:56:48;22.13;55.75
73570;SHT30;61850;54.980;73.298;2022-07-09T22:59:14;22.13;55.75
73570;SHT30;61850;54.980;73.298;2022-07-09T23:01:46;22.10;56.04
73570;SHT30;61850;54.980;73.298;2022-07-09T23:07:15;22.03;56.22
73570;SHT30;61850;54.980;73.298;2022-07-09T23:10:07;21.97;56.80
